sensor_id;sensor_type;location;lat;lon;timestamp;temperature;humidity
3912;DHT22;1971;51.778;10.330;2023-07-13T00:00:03;13.00;99.90
3912;DHT22;1971;51.778;10.330;2023-07-13T00:02:40;13.10;99.90
3912;DHT22;1971;51.778;10.330;2023-07-13T00:05:16;13.10;99.90
3912;DHT22;1971;51.778;10.330;2023-07-13T00:07:48;13.10;99.90
3912;DHT22;1971;51.778;10.330;2023-07-13T00:10:18;13.10;99.90
3912;DHT22;1971;51.778;10.330;2023-07-13T00:12:49;13.00;99.90
3912;DHT22;1971;51.778;10.330;2023-07-13T00:15:24;12.90;1.00
3912;DHT22;1971;51.778;10.330;2023-07-13T00:17:57;13.10;1.00
3912;DHT22;1971;51.778;10.330;2023-07-13T00:20:30;13.20;1.00
3912;DHT22;1971;51.778;10.330;2023-07-13T00:23:00;13.20;99.90
3912;DHT22;1971;51.778;10.330;2023-07-13T00:25:31;13.10;99.90
3912;DHT22;1971;51.778;10.330;2023-07-13T00:28:03;13.00;99.90
3912;DHT22;1971;51.778;10.330;2023-07-13T00:30:33;12.90;1.00
3912;DHT22;1971;51.778;10.330;2023-07-13T00:33:03;13.10;1.00
3912;DHT22;1971;51.778;10.330;2023-07-13T00:35:47;13.20;1.00
3912;DHT22;1971;51.778;10.330;2023-07-13T00:38:17;13.30;1.00
3912;DHT22;1971;51.778;10.330;2023-07-13T00:40:47;13.30;99.90
3912;DHT22;1971;51.778;10.330;2023-07-13T00:43:19;13.40;99.90
3912;DHT22;1971;51.778;10.330;2023-07-13T00:46:16;13.40;99.90
3912;DHT22;1971;51.778;10.330;2023-07-13T00:48:49;13.10;99.90
3912;DHT22;1971;51.778;10.330;2023-07-13T00:51:27;13.10;1.00
3912;DHT22;1971;51.778;10.330;2023-07-13T00:54:01;13.30;1.00
3912;DHT22;1971;51.778;10.330;2023-07-13T00:56:34;13.30;1.00
3912;DHT22;1971;51.778;10.330;2023-07-13T00:59:07;13.30;1.00
3912;DHT22;1971;51.778;10.330;2023-07-13T01:01:39;13.50;1.00
3912;DHT22;1971;51.778;10.330;2023-07-13T01:04:10;13.50;1.00
3912;DHT22;1971;51.778;10.330;2023-07-13T01:06:45;13.60;1.00
3912;DHT22;1971;51.778;10.330;2023-07-13T01:09:15;13.70;1.00
3912;DHT22;1971;51.778;10.330;2023-07-13T01:11:46;13.70;1.00
3912;DHT22;1971;51.778;10.330;2023-07-13T01:14:16;13.60;1.00
3912;DHT22;1971;51.778;10.330;2023-07-13T01:16:47;13.50;1.00
3912;DHT22;1971;51.778;10.330;2023-07-13T01:19:32;13.50;1.00
3912;DHT22;1971;51.778;10.330;2023-07-13T01:22:10;13.60;1.00
3912;DHT22;1971;51.778;10.330;2023-07-13T01:24:44;13.70;1.00
3912;DHT22;1971;51.778;10.330;2023-07-13T01:27:19;13.60;1.00
3912;DHT22;1971;51.778;10.330;2023-07-13T01:29:51;13.70;1.00
3912;DHT22;1971;51.778;10.330;2023-07-13T01:32:32;13.60;1.00
3912;DHT22;1971;51.778;10.330;2023-07-13T01:35:03;13.40;1.00
3912;DHT22;1971;51.778;10.330;2023-07-13T01:37:36;13.10;1.00
3912;DHT22;1971;51.778;10.330;2023-07-13T01:40:09;13.30;1.00
3912;DHT22;1971;51.778;10.330;2023-07-13T01:42:40;13.30;1.00
3912;DHT22;1971;51.778;10.330;2023-07-13T01:45:11;13.40;1.00
3912;DHT22;1971;51.778;10.330;2023-07-13T01:47:41;13.20;1.00
3912;DHT22;1971;51.778;10.330;2023-07-13T01:50:12;13.20;1.00
3912;DHT22;1971;51.778;10.330;2023-07-13T01:52:45;13.40;1.00
3912;DHT22;1971;51.778;10.330;2023-07-13T01:55:15;13.30;1.00
3912;DHT22;1971;51.778;10.330;2023-07-13T01:57:47;13.50;1.00
3912;DHT22;1971;51.778;10.330;2023-07-13T02:00:18;13.40;1.00
3912;DHT22;1971;51.778;10.330;2023-07-13T02:02:48;13.30;1.00
3912;DHT22;1971;51.778;10.330;2023-07-13T02:05:22;13.30;1.00
3912;DHT22;1971;51.778;10.330;2023-07-13T02:07:55;13.40;1.00
3912;DHT22;1971;51.778;10.330;2023-07-13T02:10:26;13.30;1.00
3912;DHT22;1971;51.778;10.330;2023-07-13T02:12:56;13.30;1.00
3912;DHT22;1971;51.778;10.330;2023-07-13T02:15:26;13.30;1.00
3912;DHT22;1971;51.778;10.330;2023-07-13T02:17:56;13.30;4.10
3912;DHT22;1971;51.778;10.330;2023-07-13T02:20:27;13.40;4.60
3912;DHT22;1971;51.778;10.330;2023-07-13T02:23:00;13.40;1.00
3912;DHT22;1971;51.778;10.330;2023-07-13T02:25:33;13.40;1.00
3912;DHT22;1971;51.778;10.330;2023-07-13T02:28:03;13.40;1.00
3912;DHT22;1971;51.778;10.330;2023-07-13T02:30:34;13.20;1.00
3912;DHT22;1971;51.778;10.330;2023-07-13T02:33:04;13.20;1.00
3912;DHT22;1971;51.778;10.330;2023-07-13T02:35:35;13.20;1.00
3912;DHT22;1971;51.778;10.330;2023-07-13T02:38:08;13.20;1.00
3912;DHT22;1971;51.778;10.330;2023-07-13T02:40:38;13.20;1.00
3912;DHT22;1971;51.778;10.330;2023-07-13T02:43:08;13.20;1.00
3912;DHT22;1971;51.778;10.330;2023-07-13T02:45:39;13.20;1.00
3912;DHT22;1971;51.778;10.330;2023-07-13T02:48:14;13.10;1.00
3912;DHT22;1971;51.778;10.330;2023-07-13T02:50:44;13.20;1.00
3912;DHT22;1971;51.778;10.330;2023-07-13T02:53:17;13.10;1.00
3912;DHT22;1971;51.778;10.330;2023-07-13T02:55:48;13.10;1.00
3912;DHT22;1971;51.778;10.330;2023-07-13T02:58:18;13.00;1.00
3912;DHT22;1971;51.778;10.330;2023-07-13T03:00:49;12.90;1.00
3912;DHT22;1971;51.778;10.330;2023-07-13T03:03:19;12.90;1.00
3912;DHT22;1971;51.778;10.330;2023-07-13T03:05:58;12.90;1.00
3912;DHT22;1971;51.778;10.330;2023-07-13T03:08:37;12.70;1.00
3912;DHT22;1971;51.778;10.330;2023-07-13T03:11:09;12.40;1.00
3912;DHT22;1971;51.778;10.330;2023-07-13T03:13:42;12.20;1.00
3912;DHT22;1971;51.778;10.330;2023-07-13T03:16:14;12.20;1.00
3912;DHT22;1971;51.778;10.330;2023-07-13T03:18:48;12.10;99.90
3912;DHT22;1971;51.778;10.330;2023-07-13T03:21:18;12.00;1.00
3912;DHT22;1971;51.778;10.330;2023-07-13T03:23:51;12.10;1.00
3912;DHT22;1971;51.778;10.330;2023-07-13T03:26:21;12.10;1.00
3912;DHT22;1971;51.778;10.330;2023-07-13T03:28:51;11.90;1.00
3912;DHT22;1971;51.778;10.330;2023-07-13T03:31:25;11.90;1.00
3912;DHT22;1971;51.778;10.330;2023-07-13T03:33:56;11.90;1.00
3912;DHT22;1971;51.778;10.330;2023-07-13T03:36:31;11.90;1.00
3912;DHT22;1971;51.778;10.330;2023-07-13T03:39:09;12.00;1.00
3912;DHT22;1971;51.778;10.330;2023-07-13T03:41:46;11.90;1.00
3912;DHT22;1971;51.778;10.330;2023-07-13T03:44:17;11.90;99.90
3912;DHT22;1971;51.778;10.330;2023-07-13T03:46:52;11.70;1.00
3912;DHT22;1971;51.778;10.330;2023-07-13T03:49:23;11.60;1.00
3912;DHT22;1971;51.778;10.330;2023-07-13T03:51:53;11.70;1.00
3912;DHT22;1971;51.778;10.330;2023-07-13T03:54:27;11.70;1.00
3912;DHT22;1971;51.778;10.330;2023-07-13T03:56:58;11.60;1.00
3912;DHT22;1971;51.778;10.330;2023-07-13T03:59:33;11.40;1.00
3912;DHT22;1971;51.778;10.330;2023-07-13T04:02:04;11.50;1.00
3912;DHT22;1971;51.778;10.330;2023-07-13T04:04:34;11.70;1.00
3912;DHT22;1971;51.778;10.330;2023-07-13T04:07:10;11.80;1.00
3912;DHT22;1971;51.778;10.330;2023-07-13T04:09:43;11.80;1.00
3912;DHT22;1971;51.778;10.330;2023-07-13T04:12:14;12.00;1.00
3912;DHT22;1971;51.778;10.330;2023-07-13T04:14:44;12.10;1.00
3912;DHT22;1971;51.778;10.330;2023-07-13T04:17:14;12.20;1.00
3912;DHT22;1971;51.778;10.330;2023-07-13T04:19:44;12.50;1.00
3912;DHT22;1971;51.778;10.330;2023-07-13T04:22:19;12.60;1.00
3912;DHT22;1971;51.778;10.330;2023-07-13T04:24:52;12.70;1.00
3912;DHT22;1971;51.778;10.330;2023-07-13T04:27:22;12.80;1.00
3912;DHT22;1971;51.778;10.330;2023-07-13T04:29:55;12.60;1.00
3912;DHT22;1971;51.778;10.330;2023-07-13T04:32:25;12.90;1.00
3912;DHT22;1971;51.778;10.330;2023-07-13T04:34:55;13.10;1.00
3912;DHT22;1971;51.778;10.330;2023-07-13T04:37:26;13.20;1.00
3912;DHT22;1971;51.778;10.330;2023-07-13T04:39:59;13.40;1.00
3912;DHT22;1971;51.778;10.330;2023-07-13T04:42:29;13.60;1.00
3912;DHT22;1971;51.778;10.330;2023-07-13T04:45:01;13.70;1.00
3912;DHT22;1971;51.778;10.330;2023-07-13T04:47:33;13.90;1.00
3912;DHT22;1971;51.778;10.330;2023-07-13T04:50:13;14.00;1.00
3912;DHT22;1971;51.778;10.330;2023-07-13T04:52:48;14.20;1.00
3912;DHT22;1971;51.778;10.330;2023-07-13T04:55:20;14.30;1.00
3912;DHT22;1971;51.778;10.330;2023-07-13T04:57:51;14.40;1.00
3912;DHT22;1971;51.778;10.330;2023-07-13T05:00:21;14.70;1.00
3912;DHT22;1971;51.778;10.330;2023-07-13T05:02:54;14.70;99.90
3912;DHT22;1971;51.778;10.330;2023-07-13T05:05:25;14.70;99.90
3912;DHT22;1971;51.778;10.330;2023-07-13T05:07:56;14.70;99.90
3912;DHT22;1971;51.778;10.330;2023-07-13T05:10:29;14.60;99.90
3912;DHT22;1971;51.778;10.330;2023-07-13T05:12:59;14.60;99.90
3912;DHT22;1971;51.778;10.330;2023-07-13T05:15:30;14.60;99.90
3912;DHT22;1971;51.778;10.330;2023-07-13T05:18:00;14.60;99.90
3912;DHT22;1971;51.778;10.330;2023-07-13T05:20:30;14.80;99.90
3912;DHT22;1971;51.778;10.330;2023-07-13T05:23:00;14.80;99.90
3912;DHT22;1971;51.778;10.330;2023-07-13T05:25:32;14.90;99.90
3912;DHT22;1971;51.778;10.330;2023-07-13T05:28:03;15.00;99.90
3912;DHT22;1971;51.778;10.330;2023-07-13T05:30:33;15.10;89.00
3912;DHT22;1971;51.778;10.330;2023-07-13T05:33:03;15.10;63.30
3912;DHT22;1971;51.778;10.330;2023-07-13T05:35:33;15.20;99.10
3912;DHT22;1971;51.778;10.330;2023-07-13T05:38:04;15.10;97.50
3912;DHT22;1971;51.778;10.330;2023-07-13T05:40:37;15.00;99.70
3912;DHT22;1971;51.778;10.330;2023-07-13T05:43:07;15.10;99.90
3912;DHT22;1971;51.778;10.330;2023-07-13T05:45:37;15.40;99.90
3912;DHT22;1971;51.778;10.330;2023-07-13T05:48:07;15.80;60.40
3912;DHT22;1971;51.778;10.330;2023-07-13T05:50:38;16.20;1.00
3912;DHT22;1971;51.778;10.330;2023-07-13T05:53:08;16.40;1.00
3912;DHT22;1971;51.778;10.330;2023-07-13T05:55:44;16.30;1.00
3912;DHT22;1971;51.778;10.330;2023-07-13T05:58:15;16.10;1.00
3912;DHT22;1971;51.778;10.330;2023-07-13T06:00:46;16.00;1.00
3912;DHT22;1971;51.778;10.330;2023-07-13T06:03:16;15.80;1.00
3912;DHT22;1971;51.778;10.330;2023-07-13T06:05:47;15.90;1.00
3912;DHT22;1971;51.778;10.330;2023-07-13T06:08:17;16.00;1.00
3912;DHT22;1971;51.778;10.330;2023-07-13T06:10:49;16.20;1.00
3912;DHT22;1971;51.778;10.330;2023-07-13T06:13:19;16.10;1.00
3912;DHT22;1971;51.778;10.330;2023-07-13T06:15:50;16.40;1.00
3912;DHT22;1971;51.778;10.330;2023-07-13T06:18:20;16.20;1.00
3912;DHT22;1971;51.778;10.330;2023-07-13T06:20:50;16.50;1.00
3912;DHT22;1971;51.778;10.330;2023-07-13T06:23:21;16.30;1.00
3912;DHT22;1971;51.778;10.330;2023-07-13T06:25:53;16.10;1.00
3912;DHT22;1971;51.778;10.330;2023-07-13T06:28:23;16.00;1.00
3912;DHT22;1971;51.778;10.330;2023-07-13T06:30:53;15.80;1.00
3912;DHT22;1971;51.778;10.330;2023-07-13T06:33:24;16.00;1.00
3912;DHT22;1971;51.778;10.330;2023-07-13T06:35:54;16.40;1.00
3912;DHT22;1971;51.778;10.330;2023-07-13T06:38:24;16.70;1.00
3912;DHT22;1971;51.778;10.330;2023-07-13T06:40:58;16.50;1.00
3912;DHT22;1971;51.778;10.330;2023-07-13T06:43:28;16.60;1.00
3912;DHT22;1971;51.778;10.330;2023-07-13T06:45:59;16.80;1.00
3912;DHT22;1971;51.778;10.330;2023-07-13T06:48:29;17.00;1.00
3912;DHT22;1971;51.778;10.330;2023-07-13T06:50:59;17.20;1.00
3912;DHT22;1971;51.778;10.330;2023-07-13T06:53:29;17.50;1.00
3912;DHT22;1971;51.778;10.330;2023-07-13T06:56:02;17.10;1.00
3912;DHT22;1971;51.778;10.330;2023-07-13T06:58:34;17.30;1.00
3912;DHT22;1971;51.778;10.330;2023-07-13T07:01:04;17.40;1.00
3912;DHT22;1971;51.778;10.330;2023-07-13T07:03:34;17.80;1.00
3912;DHT22;1971;51.778;10.330;2023-07-13T07:06:14;17.90;99.90
3912;DHT22;1971;51.778;10.330;2023-07-13T07:08:45;17.80;99.90
3912;DHT22;1971;51.778;10.330;2023-07-13T07:11:19;17.10;99.90
3912;DHT22;1971;51.778;10.330;2023-07-13T07:13:50;17.20;99.90
3912;DHT22;1971;51.778;10.330;2023-07-13T07:16:24;17.80;99.90
3912;DHT22;1971;51.778;10.330;2023-07-13T07:18:55;17.60;99.90
3912;DHT22;1971;51.778;10.330;2023-07-13T07:21:25;17.00;99.90
3912;DHT22;1971;51.778;10.330;2023-07-13T07:23:55;17.00;99.90
3912;DHT22;1971;51.778;10.330;2023-07-13T07:26:31;17.50;99.90
3912;DHT22;1971;51.778;10.330;2023-07-13T07:29:21;17.90;99.90
3912;DHT22;1971;51.778;10.330;2023-07-13T07:31:56;18.20;99.90
3912;DHT22;1971;51.778;10.330;2023-07-13T07:34:44;18.80;99.90
3912;DHT22;1971;51.778;10.330;2023-07-13T07:37:14;18.70;99.90
3912;DHT22;1971;51.778;10.330;2023-07-13T07:39:47;18.60;99.90
3912;DHT22;1971;51.778;10.330;2023-07-13T07:42:40;18.40;99.90
3912;DHT22;1971;51.778;10.330;2023-07-13T07:45:10;17.70;99.90
3912;DHT22;1971;51.778;10.330;2023-07-13T07:47:40;17.90;99.90
3912;DHT22;1971;51.778;10.330;2023-07-13T07:50:10;18.40;99.90
3912;DHT22;1971;51.778;10.330;2023-07-13T07:52:40;18.00;99.90
3912;DHT22;1971;51.778;10.330;2023-07-13T07:55:11;17.90;99.90
3912;DHT22;1971;51.778;10.330;2023-07-13T07:57:47;17.90;99.90
3912;DHT22;1971;51.778;10.330;2023-07-13T08:00:20;18.50;99.90
3912;DHT22;1971;51.778;10.330;2023-07-13T08:02:53;18.70;99.90
3912;DHT22;1971;51.778;10.330;2023-07-13T08:05:44;18.70;99.90
3912;DHT22;1971;51.778;10.330;2023-07-13T08:08:35;19.10;99.90
3912;DHT22;1971;51.778;10.330;2023-07-13T08:11:06;19.60;99.90
3912;DHT22;1971;51.778;10.330;2023-07-13T08:13:43;19.40;99.90
3912;DHT22;1971;51.778;10.330;2023-07-13T08:16:13;18.50;99.90
3912;DHT22;1971;51.778;10.330;2023-07-13T08:18:43;18.80;99.90
3912;DHT22;1971;51.778;10.330;2023-07-13T08:21:13;18.90;99.90
3912;DHT22;1971;51.778;10.330;2023-07-13T08:23:43;18.90;99.90
3912;DHT22;1971;51.778;10.330;2023-07-13T08:26:13;19.20;99.90
3912;DHT22;1971;51.778;10.330;2023-07-13T08:28:46;18.50;99.90
3912;DHT22;1971;51.778;10.330;2023-07-13T08:31:16;19.30;99.90
3912;DHT22;1971;51.778;10.330;2023-07-13T08:33:46;19.40;99.90
3912;DHT22;1971;51.778;10.330;2023-07-13T08:36:16;19.30;99.90
3912;DHT22;1971;51.778;10.330;2023-07-13T08:38:46;18.80;99.90
3912;DHT22;1971;51.778;10.330;2023-07-13T08:41:17;18.60;99.90
3912;DHT22;1971;51.778;10.330;2023-07-13T08:43:51;18.90;99.90
3912;DHT22;1971;51.778;10.330;2023-07-13T08:46:28;18.20;99.90
3912;DHT22;1971;51.778;10.330;2023-07-13T08:49:03;18.20;99.90
3912;DHT22;1971;51.778;10.330;2023-07-13T08:51:40;18.50;99.90
3912;DHT22;1971;51.778;10.330;2023-07-13T08:54:20;18.90;99.90
3912;DHT22;1971;51.778;10.330;2023-07-13T08:56:53;18.70;99.90
3912;DHT22;1971;51.778;10.330;2023-07-13T08:59:27;18.60;99.90
3912;DHT22;1971;51.778;10.330;2023-07-13T09:02:19;18.80;99.90
3912;DHT22;1971;51.778;10.330;2023-07-13T09:04:54;19.30;99.90
3912;DHT22;1971;51.778;10.330;2023-07-13T09:07:35;19.90;99.90
3912;DHT22;1971;51.778;10.330;2023-07-13T09:10:15;20.10;99.90
3912;DHT22;1971;51.778;10.330;2023-07-13T09:12:57;19.50;99.90
3912;DHT22;1971;51.778;10.330;2023-07-13T09:15:35;19.50;99.90
3912;DHT22;1971;51.778;10.330;2023-07-13T09:18:11;19.90;99.90
3912;DHT22;1971;51.778;10.330;2023-07-13T09:20:48;19.60;99.90
3912;DHT22;1971;51.778;10.330;2023-07-13T09:23:20;19.20;99.90
3912;DHT22;1971;51.778;10.330;2023-07-13T09:25:54;19.50;99.90
3912;DHT22;1971;51.778;10.330;2023-07-13T09:28:37;19.20;99.90
3912;DHT22;1971;51.778;10.330;2023-07-13T09:31:14;19.20;99.90
3912;DHT22;1971;51.778;10.330;2023-07-13T09:33:45;18.90;99.90
3912;DHT22;1971;51.778;10.330;2023-07-13T09:36:20;19.20;99.90
3912;DHT22;1971;51.778;10.330;2023-07-13T09:38:58;18.90;99.90
3912;DHT22;1971;51.778;10.330;2023-07-13T09:41:35;18.70;99.90
3912;DHT22;1971;51.778;10.330;2023-07-13T09:44:11;18.10;99.90
3912;DHT22;1971;51.778;10.330;2023-07-13T09:46:51;18.30;99.90
3912;DHT22;1971;51.778;10.330;2023-07-13T09:49:25;18.30;99.90
3912;DHT22;1971;51.778;10.330;2023-07-13T09:52:00;18.20;99.90
3912;DHT22;1971;51.778;10.330;2023-07-13T09:54:34;17.70;99.90
3912;DHT22;1971;51.778;10.330;2023-07-13T09:57:15;18.10;99.90
3912;DHT22;1971;51.778;10.330;2023-07-13T09:59:47;18.80;99.90
3912;DHT22;1971;51.778;10.330;2023-07-13T10:02:31;19.70;99.90
3912;DHT22;1971;51.778;10.330;2023-07-13T10:05:06;20.30;99.90
3912;DHT22;1971;51.778;10.330;2023-07-13T10:07:39;21.30;99.90
3912;DHT22;1971;51.778;10.330;2023-07-13T10:10:14;21.30;99.90
3912;DHT22;1971;51.778;10.330;2023-07-13T10:12:46;20.70;99.90
3912;DHT22;1971;51.778;10.330;2023-07-13T10:15:19;21.00;99.90
3912;DHT22;1971;51.778;10.330;2023-07-13T10:17:54;21.20;99.90
3912;DHT22;1971;51.778;10.330;2023-07-13T10:20:26;21.70;99.90
3912;DHT22;1971;51.778;10.330;2023-07-13T10:23:00;21.70;99.90
3912;DHT22;1971;51.778;10.330;2023-07-13T10:25:34;21.70;99.90
3912;DHT22;1971;51.778;10.330;2023-07-13T10:28:09;21.80;99.90
3912;DHT22;1971;51.778;10.330;2023-07-13T10:30:43;21.60;91.10
3912;DHT22;1971;51.778;10.330;2023-07-13T10:33:18;21.70;90.40
3912;DHT22;1971;51.778;10.330;2023-07-13T10:35:52;21.40;74.10
3912;DHT22;1971;51.778;10.330;2023-07-13T10:38:25;20.20;36.80
3912;DHT22;1971;51.778;10.330;2023-07-13T10:40:57;20.50;69.60
3912;DHT22;1971;51.778;10.330;2023-07-13T10:43:31;20.50;62.60
3912;DHT22;1971;51.778;10.330;2023-07-13T10:46:05;20.30;52.30
3912;DHT22;1971;51.778;10.330;2023-07-13T10:48:40;20.00;40.10
3912;DHT22;1971;51.778;10.330;2023-07-13T10:51:14;20.10;71.20
3912;DHT22;1971;51.778;10.330;2023-07-13T10:53:45;19.40;40.90
3912;DHT22;1971;51.778;10.330;2023-07-13T10:56:26;19.20;75.00
3912;DHT22;1971;51.778;10.330;2023-07-13T10:59:09;18.60;48.20
3912;DHT22;1971;51.778;10.330;2023-07-13T11:01:49;18.30;54.20
3912;DHT22;1971;51.778;10.330;2023-07-13T11:04:24;18.20;55.50
3912;DHT22;1971;51.778;10.330;2023-07-13T11:06:59;18.40;90.00
3912;DHT22;1971;51.778;10.330;2023-07-13T11:09:40;18.30;72.60
3912;DHT22;1971;51.778;10.330;2023-07-13T11:15:31;17.90;58.40
3912;DHT22;1971;51.778;10.330;2023-07-13T11:18:04;18.30;68.30
3912;DHT22;1971;51.778;10.330;2023-07-13T11:20:44;18.40;71.50
3912;DHT22;1971;51.778;10.330;2023-07-13T11:23:31;18.20;41.80
3912;DHT22;1971;51.778;10.330;2023-07-13T11:26:38;18.80;80.10
3912;DHT22;1971;51.778;10.330;2023-07-13T11:29:14;19.90;93.30
3912;DHT22;1971;51.778;10.330;2023-07-13T11:31:55;20.60;96.40
3912;DHT22;1971;51.778;10.330;2023-07-13T11:34:30;20.70;94.00
3912;DHT22;1971;51.778;10.330;2023-07-13T11:37:08;19.90;55.50
3912;DHT22;1971;51.778;10.330;2023-07-13T11:39:42;19.40;39.80
3912;DHT22;1971;51.778;10.330;2023-07-13T11:42:16;19.80;77.30
3912;DHT22;1971;51.778;10.330;2023-07-13T11:44:48;19.70;50.20
3912;DHT22;1971;51.778;10.330;2023-07-13T11:47:40;19.30;30.20
3912;DHT22;1971;51.778;10.330;2023-07-13T11:50:18;19.70;43.80
3912;DHT22;1971;51.778;10.330;2023-07-13T11:52:52;19.80;46.60
3912;DHT22;1971;51.778;10.330;2023-07-13T11:55:24;19.90;48.90
3912;DHT22;1971;51.778;10.330;2023-07-13T11:57:58;19.50;18.00
3912;DHT22;1971;51.778;10.330;2023-07-13T12:00:32;19.40;22.80
3912;DHT22;1971;51.778;10.330;2023-07-13T12:03:05;18.80;14.20
3912;DHT22;1971;51.778;10.330;2023-07-13T12:05:36;18.70;20.60
3912;DHT22;1971;51.778;10.330;2023-07-13T12:08:12;18.80;37.70
3912;DHT22;1971;51.778;10.330;2023-07-13T12:10:57;18.70;27.20
3912;DHT22;1971;51.778;10.330;2023-07-13T12:13:27;19.10;45.40
3912;DHT22;1971;51.778;10.330;2023-07-13T12:15:59;19.10;28.40
3912;DHT22;1971;51.778;10.330;2023-07-13T12:18:30;19.70;53.00
3912;DHT22;1971;51.778;10.330;2023-07-13T12:21:01;20.00;56.80
3912;DHT22;1971;51.778;10.330;2023-07-13T12:23:36;20.60;56.40
3912;DHT22;1971;51.778;10.330;2023-07-13T12:26:06;21.00;64.70
3912;DHT22;1971;51.778;10.330;2023-07-13T12:28:45;20.80;49.80
3912;DHT22;1971;51.778;10.330;2023-07-13T12:31:30;20.50;20.10
3912;DHT22;1971;51.778;10.330;2023-07-13T12:34:02;20.30;22.20
3912;DHT22;1971;51.778;10.330;2023-07-13T12:36:37;20.00;20.80
3912;DHT22;1971;51.778;10.330;2023-07-13T12:39:17;20.10;27.50
3912;DHT22;1971;51.778;10.330;2023-07-13T12:41:49;19.90;16.50
3912;DHT22;1971;51.778;10.330;2023-07-13T12:44:26;20.10;22.00
3912;DHT22;1971;51.778;10.330;2023-07-13T12:47:03;20.50;33.00
3912;DHT22;1971;51.778;10.330;2023-07-13T12:49:41;21.00;43.20
3912;DHT22;1971;51.778;10.330;2023-07-13T12:52:16;20.80;18.60
3912;DHT22;1971;51.778;10.330;2023-07-13T12:54:59;20.70;20.00
3912;DHT22;1971;51.778;10.330;2023-07-13T12:57:38;20.60;36.70
3912;DHT22;1971;51.778;10.330;2023-07-13T13:00:29;20.20;20.00
3912;DHT22;1971;51.778;10.330;2023-07-13T13:03:03;20.00;25.50
3912;DHT22;1971;51.778;10.330;2023-07-13T13:05:41;19.90;24.80
3912;DHT22;1971;51.778;10.330;2023-07-13T13:08:15;20.00;29.80
3912;DHT22;1971;51.778;10.330;2023-07-13T13:10:48;20.30;53.20
3912;DHT22;1971;51.778;10.330;2023-07-13T13:13:18;20.60;58.70
3912;DHT22;1971;51.778;10.330;2023-07-13T13:15:48;20.80;56.10
3912;DHT22;1971;51.778;10.330;2023-07-13T13:18:21;20.50;28.50
3912;DHT22;1971;51.778;10.330;2023-07-13T13:20:51;20.80;51.50
3912;DHT22;1971;51.778;10.330;2023-07-13T13:23:21;20.80;47.50
3912;DHT22;1971;51.778;10.330;2023-07-13T13:25:55;20.80;37.50
3912;DHT22;1971;51.778;10.330;2023-07-13T13:28:25;20.80;45.00
3912;DHT22;1971;51.778;10.330;2023-07-13T13:31:10;20.60;41.70
3912;DHT22;1971;51.778;10.330;2023-07-13T13:33:44;20.40;24.80
3912;DHT22;1971;51.778;10.330;2023-07-13T13:36:16;20.20;11.00
3912;DHT22;1971;51.778;10.330;2023-07-13T13:38:48;20.30;24.40
3912;DHT22;1971;51.778;10.330;2023-07-13T13:41:21;20.20;23.30
3912;DHT22;1971;51.778;10.330;2023-07-13T13:43:51;20.10;14.80
3912;DHT22;1971;51.778;10.330;2023-07-13T13:46:24;20.00;14.90
3912;DHT22;1971;51.778;10.330;2023-07-13T13:48:57;20.10;18.30
3912;DHT22;1971;51.778;10.330;2023-07-13T13:51:27;20.20;15.80
3912;DHT22;1971;51.778;10.330;2023-07-13T13:53:58;20.20;7.10
3912;DHT22;1971;51.778;10.330;2023-07-13T13:56:31;19.80;1.00
3912;DHT22;1971;51.778;10.330;2023-07-13T13:59:01;19.50;1.00
3912;DHT22;1971;51.778;10.330;2023-07-13T14:01:31;19.90;11.10
3912;DHT22;1971;51.778;10.330;2023-07-13T14:04:02;19.90;15.50
3912;DHT22;1971;51.778;10.330;2023-07-13T14:06:33;19.90;3.80
3912;DHT22;1971;51.778;10.330;2023-07-13T14:09:07;20.30;17.00
3912;DHT22;1971;51.778;10.330;2023-07-13T14:11:41;20.20;5.70
3912;DHT22;1971;51.778;10.330;2023-07-13T14:14:18;20.30;14.90
3912;DHT22;1971;51.778;10.330;2023-07-13T14:16:49;19.90;3.10
3912;DHT22;1971;51.778;10.330;2023-07-13T14:19:22;19.60;1.00
3912;DHT22;1971;51.778;10.330;2023-07-13T14:21:55;20.10;17.20
3912;DHT22;1971;51.778;10.330;2023-07-13T14:24:25;19.90;1.00
3912;DHT22;1971;51.778;10.330;2023-07-13T14:26:57;20.10;22.20
3912;DHT22;1971;51.778;10.330;2023-07-13T14:29:28;20.40;20.30
3912;DHT22;1971;51.778;10.330;2023-07-13T14:31:59;20.50;17.40
3912;DHT22;1971;51.778;10.330;2023-07-13T14:34:31;20.60;20.60
3912;DHT22;1971;51.778;10.330;2023-07-13T14:37:02;20.70;22.90
3912;DHT22;1971;51.778;10.330;2023-07-13T14:39:32;20.90;27.30
3912;DHT22;1971;51.778;10.330;2023-07-13T14:42:08;21.10;23.30
3912;DHT22;1971;51.778;10.330;2023-07-13T14:44:39;20.90;13.40
3912;DHT22;1971;51.778;10.330;2023-07-13T14:47:09;21.00;16.60
3912;DHT22;1971;51.778;10.330;2023-07-13T14:49:41;21.00;9.00
3912;DHT22;1971;51.778;10.330;2023-07-13T14:52:20;21.10;4.70
3912;DHT22;1971;51.778;10.330;2023-07-13T14:54:53;20.90;1.00
3912;DHT22;1971;51.778;10.330;2023-07-13T14:57:26;20.60;1.00
3912;DHT22;1971;51.778;10.330;2023-07-13T14:59:57;20.00;1.00
3912;DHT22;1971;51.778;10.330;2023-07-13T15:02:29;20.00;1.00
3912;DHT22;1971;51.778;10.330;2023-07-13T15:05:00;20.20;1.00
3912;DHT22;1971;51.778;10.330;2023-07-13T15:07:34;20.50;15.10
3912;DHT22;1971;51.778;10.330;2023-07-13T15:10:13;20.70;10.10
3912;DHT22;1971;51.778;10.330;2023-07-13T15:12:46;20.70;15.50
3912;DHT22;1971;51.778;10.330;2023-07-13T15:15:16;21.00;16.20
3912;DHT22;1971;51.778;10.330;2023-07-13T15:17:47;20.30;1.00
3912;DHT22;1971;51.778;10.330;2023-07-13T15:20:27;20.00;1.00
3912;DHT22;1971;51.778;10.330;2023-07-13T15:23:01;19.80;1.00
3912;DHT22;1971;51.778;10.330;2023-07-13T15:25:32;19.80;1.00
3912;DHT22;1971;51.778;10.330;2023-07-13T15:28:06;20.40;1.10
3912;DHT22;1971;51.778;10.330;2023-07-13T15:30:40;21.30;11.60
3912;DHT22;1971;51.778;10.330;2023-07-13T15:33:14;21.20;1.00
3912;DHT22;1971;51.778;10.330;2023-07-13T15:35:45;21.70;16.60
3912;DHT22;1971;51.778;10.330;2023-07-13T15:38:20;22.30;19.80
3912;DHT22;1971;51.778;10.330;2023-07-13T15:40:51;22.50;11.80
3912;DHT22;1971;51.778;10.330;2023-07-13T15:43:26;21.80;1.00
3912;DHT22;1971;51.778;10.330;2023-07-13T15:45:56;22.10;1.00
3912;DHT22;1971;51.778;10.330;2023-07-13T15:48:27;22.70;3.10
3912;DHT22;1971;51.778;10.330;2023-07-13T15:51:01;22.30;1.00
3912;DHT22;1971;51.778;10.330;2023-07-13T15:53:34;22.00;1.00
3912;DHT22;1971;51.778;10.330;2023-07-13T15:56:15;22.00;1.00
3912;DHT22;1971;51.778;10.330;2023-07-13T15:58:50;21.60;1.00
3912;DHT22;1971;51.778;10.330;2023-07-13T16:01:20;21.20;1.00
3912;DHT22;1971;51.778;10.330;2023-07-13T16:03:51;20.70;1.00
3912;DHT22;1971;51.778;10.330;2023-07-13T16:06:23;20.10;1.00
3912;DHT22;1971;51.778;10.330;2023-07-13T16:08:55;20.00;1.00
3912;DHT22;1971;51.778;10.330;2023-07-13T16:11:26;20.10;1.00
3912;DHT22;1971;51.778;10.330;2023-07-13T16:13:59;20.50;1.00
3912;DHT22;1971;51.778;10.330;2023-07-13T16:16:31;21.10;6.50
3912;DHT22;1971;51.778;10.330;2023-07-13T16:19:03;20.50;1.00
3912;DHT22;1971;51.778;10.330;2023-07-13T16:21:37;20.80;2.10
3912;DHT22;1971;51.778;10.330;2023-07-13T16:24:16;20.50;9.00
3912;DHT22;1971;51.778;10.330;2023-07-13T16:26:47;19.30;9.10
3912;DHT22;1971;51.778;10.330;2023-07-13T16:29:21;18.70;31.90
3912;DHT22;1971;51.778;10.330;2023-07-13T16:32:00;18.00;71.40
3912;DHT22;1971;51.778;10.330;2023-07-13T16:34:31;17.60;99.90